首页
METAR-TAF:

METAR-TAF

机场 :

乔治·贝斯特贝尔法斯特城市机场

贝尔法斯特, 北爱尔兰

纬度: 54-36N, 经度: 005-53W, 海拔: 5米

当前天气观测

该预报发布于23分钟前的00:20 UTC
风速3节,风向
温度 1°C
湿度 93%
气压 1020 hPa
能见度10公里或以上

METAR: EGAC 180020Z AUTO 18003KT 9999 NCD 01/00 Q1020

时间: 00:43 (00:43 UTC)

预报

该预报发布于7小时和46分钟前的16:57 UTC
预报有效从17日的 18点(UTC)到 17日的 22点(UTC)
风速6节,风向
能见度10公里或以上
散云层高于3000英尺

TAF: EGAC 171657Z 1718/1722 35006KT 9999 SCT030

超过4000个机场的气象观测和天气预报(METAR&TAF报告)。

可查询的气象台以黄色和红色小点在地图上表示。

将鼠标移到小点上方,可查看气象台名称。

然后点击查看天气观测和预报。

如需切换地图:点击带黑十字的绿色按钮放大地图;点击带横线的绿色按钮缩小地图;或者点击绿色箭头查看邻近地区的地图。


METAR-TAF: